Time;durP1;ratioP1;P1;durP2;ratioP2;P2;SDS_P1;SDS_P2;PMS_P1;PMS_P2;Temp;Humidity;BMP_temperature;BMP_pressure;BME280_temperature;BME280_humidity;BME280_pressure;Samples;Min_cycle;Max_cycle;Signal;HPM_P1;HPM_P2
2023/01/26 00:01:18;;;;;;;;;;;-0.10;99.90;;;;;;5099171;22;19928;-92
2023/01/26 00:03:46;;;;;;;;;;;0.00;99.90;;;;;;5042166;28;19954;-93
2023/01/26 00:06:14;;;;;;;;;;;-0.80;99.90;;;;;;5041611;28;19910;-92
2023/01/26 00:08:42;;;;;;;;;;;1.30;99.90;;;;;;5042157;28;19933;-93
2023/01/26 00:11:11;;;;;;;;;;;0.80;99.90;;;;;;5041896;28;19933;-93
2023/01/26 00:25:56;;;;;;;;;;;-0.20;99.90;;;;;;5082499;28;20211;-68
2023/01/26 00:28:24;;;;;;;;;;;-0.10;99.90;;;;;;5086168;28;19992;-69
2023/01/26 00:30:51;;;;;;;;;;;-0.10;99.90;;;;;;5085587;28;19920;-69
2023/01/26 00:33:17;;;;;;;;;;;-0.10;99.90;;;;;;5085731;28;20279;-68
2023/01/26 00:35:44;;;;;;;;;;;-0.10;99.90;;;;;;5085629;28;19960;-68
2023/01/26 00:38:10;;;;;;;;;;;-0.10;99.90;;;;;;5085848;28;19951;-69
2023/01/26 00:40:37;;;;;;;;;;;0.00;99.90;;;;;;5085484;28;19920;-68
2023/01/26 00:43:04;;;;;;;;;;;0.00;99.90;;;;;;5085071;28;19991;-69
2023/01/26 00:45:32;;;;;;;;;;;-0.10;99.90;;;;;;5084609;28;19955;-70
2023/01/26 00:47:59;;;;;;;;;;;-0.10;99.90;;;;;;5084567;28;19951;-68
2023/01/26 00:50:26;;;;;;;;;;;-0.10;99.90;;;;;;5084890;28;19921;-68
2023/01/26 00:52:52;;;;;;;;;;;-0.10;99.90;;;;;;5085021;28;19920;-68
2023/01/26 00:55:19;;;;;;;;;;;-0.10;99.90;;;;;;5085619;28;19924;-68
2023/01/26 00:57:46;;;;;;;;;;;-0.10;99.90;;;;;;5084981;28;20422;-68
2023/01/26 01:00:15;;;;;;;;;;;-0.10;99.90;;;;;;5085501;28;19959;-68
2023/01/26 01:02:43;;;;;;;;;;;-0.10;99.90;;;;;;5085134;28;19999;-68
2023/01/26 01:05:10;;;;;;;;;;;-0.10;99.90;;;;;;5085278;28;19927;-68
2023/01/26 01:07:36;;;;;;;;;;;-0.10;99.90;;;;;;5084785;28;19920;-68
2023/01/26 01:10:03;;;;;;;;;;;-0.10;99.90;;;;;;5084964;28;19984;-68
2023/01/26 01:12:30;;;;;;;;;;;-0.10;99.90;;;;;;5084929;28;20000;-68
2023/01/26 01:14:56;;;;;;;;;;;-0.10;99.90;;;;;;5085208;28;20200;-68
2023/01/26 01:17:23;;;;;;;;;;;-0.10;99.90;;;;;;5085049;28;19988;-68
2023/01/26 01:19:51;;;;;;;;;;;-0.10;99.90;;;;;;5085105;28;19956;-68
2023/01/26 01:22:18;;;;;;;;;;;-0.20;99.90;;;;;;5084583;28;19920;-69
2023/01/26 01:24:46;;;;;;;;;;;-0.20;99.90;;;;;;5083848;28;19966;-67
2023/01/26 01:27:13;;;;;;;;;;;-0.10;99.90;;;;;;5084819;28;19991;-68
2023/01/26 01:29:40;;;;;;;;;;;-0.20;99.90;;;;;;5084910;28;19948;-68
2023/01/26 01:32:06;;;;;;;;;;;-0.20;99.90;;;;;;5084528;28;20235;-68
2023/01/26 01:34:33;;;;;;;;;;;-0.20;99.90;;;;;;5084508;28;19944;-68
2023/01/26 01:37:01;;;;;;;;;;;-0.20;99.90;;;;;;5084436;28;19983;-68
2023/01/26 01:39:27;;;;;;;;;;;-0.30;99.90;;;;;;5084722;28;20090;-67
2023/01/26 01:41:54;;;;;;;;;;;-0.30;99.90;;;;;;5084358;28;19921;-67
2023/01/26 01:44:22;;;;;;;;;;;-0.30;99.90;;;;;;5084136;28;20243;-68
2023/01/26 01:46:53;;;;;;;;;;;-0.30;99.90;;;;;;5084719;28;19920;-67
2023/01/26 01:49:22;;;;;;;;;;;-0.30;99.90;;;;;;5084541;28;20111;-68
2023/01/26 01:51:51;;;;;;;;;;;-0.90;99.90;;;;;;5084038;28;20211;-68
2023/01/26 01:54:21;;;;;;;;;;;-0.30;99.90;;;;;;5084302;28;19952;-68
2023/01/26 01:56:51;;;;;;;;;;;-0.30;99.90;;;;;;5084125;28;19920;-68
2023/01/26 01:59:20;;;;;;;;;;;-0.30;99.90;;;;;;5083841;28;19927;-68
2023/01/26 02:01:47;;;;;;;;;;;-0.30;99.90;;;;;;5083768;28;19920;-68
2023/01/26 02:04:14;;;;;;;;;;;-0.30;99.90;;;;;;5084017;28;20204;-68
2023/01/26 02:06:43;;;;;;;;;;;-0.20;99.90;;;;;;5084154;28;20107;-68
2023/01/26 02:10:17;;;;;;;;;;;-0.20;99.90;;;;;;5083826;28;19920;-68
2023/01/26 02:11:59;;;;;;;;;;;-0.20;99.90;;;;;;5083746;28;19921;-68
2023/01/26 02:14:26;;;;;;;;;;;-0.20;99.90;;;;;;5083874;28;19920;-68
2023/01/26 02:16:53;;;;;;;;;;;-0.20;99.90;;;;;;5083928;28;19920;-68
2023/01/26 02:19:22;;;;;;;;;;;-0.30;99.90;;;;;;5084192;28;19958;-68
2023/01/26 02:21:51;;;;;;;;;;;-0.20;99.90;;;;;;5083618;28;20278;-68
2023/01/26 02:24:22;;;;;;;;;;;-0.20;99.90;;;;;;5083027;28;19987;-68
2023/01/26 02:26:50;;;;;;;;;;;-0.30;99.90;;;;;;5083395;28;19983;-68
2023/01/26 02:29:17;;;;;;;;;;;-0.30;99.90;;;;;;5083716;28;20262;-68
2023/01/26 02:31:43;;;;;;;;;;;-0.30;99.90;;;;;;5083442;28;19939;-68
2023/01/26 02:34:10;;;;;;;;;;;-0.30;99.90;;;;;;5083753;28;19951;-68
2023/01/26 02:36:37;;;;;;;;;;;-0.30;99.90;;;;;;5083606;28;19920;-68
2023/01/26 02:39:17;;;;;;;;;;;-0.20;99.90;;;;;;5083429;28;19991;-68
2023/01/26 02:44:32;;;;;;;;;;;-0.20;99.90;;;;;;5083542;28;19957;-68
2023/01/26 02:46:58;;;;;;;;;;;-0.20;99.90;;;;;;5083200;28;19927;-68
2023/01/26 02:52:09;;;;;;;;;;;-0.20;99.90;;;;;;5083445;28;19923;-68
2023/01/26 02:57:20;;;;;;;;;;;-0.30;99.90;;;;;;5083181;28;19958;-68
2023/01/26 02:59:48;;;;;;;;;;;-0.30;99.90;;;;;;5083673;28;20234;-69
2023/01/26 03:02:15;;;;;;;;;;;-0.20;99.90;;;;;;5083155;28;20282;-68
2023/01/26 03:04:41;;;;;;;;;;;-0.20;99.90;;;;;;5083720;28;19925;-68
2023/01/26 03:07:08;;;;;;;;;;;-0.20;99.90;;;;;;5083118;28;19987;-68
2023/01/26 03:09:35;;;;;;;;;;;-0.20;99.90;;;;;;5083567;28;20142;-68
2023/01/26 03:12:02;;;;;;;;;;;-0.20;99.90;;;;;;5083211;28;19987;-69
2023/01/26 03:14:28;;;;;;;;;;;-0.20;99.90;;;;;;5083249;28;19987;-68
2023/01/26 03:16:56;;;;;;;;;;;-0.20;99.90;;;;;;5082891;28;19927;-68
2023/01/26 03:27:41;;;;;;;;;;;-0.20;99.90;;;;;;5082869;28;19992;-68
2023/01/26 03:30:08;;;;;;;;;;;-0.20;99.90;;;;;;5082847;28;19920;-68
2023/01/26 03:32:36;;;;;;;;;;;-0.20;99.90;;;;;;5083393;28;19927;-68
2023/01/26 03:35:03;;;;;;;;;;;-0.30;99.90;;;;;;5083234;28;19928;-69
2023/01/26 03:37:35;;;;;;;;;;;-0.30;99.90;;;;;;5082758;28;19920;-68
2023/01/26 03:56:31;;;;;;;;;;;-0.40;99.90;;;;;;5082612;28;19939;-68
2023/01/26 03:59:07;;;;;;;;;;;-0.40;99.90;;;;;;5083098;28;20149;-68
2023/01/26 04:01:34;;;;;;;;;;;-0.40;99.90;;;;;;5084887;28;19920;-68
2023/01/26 04:09:31;;;;;;;;;;;-0.40;99.90;;;;;;5086315;28;20253;-68
2023/01/26 04:11:58;;;;;;;;;;;-0.40;99.90;;;;;;5086304;28;19920;-69
2023/01/26 04:22:42;;;;;;;;;;;-0.30;99.90;;;;;;5086182;28;19927;-68
2023/01/26 04:25:18;;;;;;;;;;;-0.30;99.90;;;;;;5085288;28;20196;-68
2023/01/26 04:27:44;;;;;;;;;;;-0.30;99.90;;;;;;5085953;28;19925;-68
2023/01/26 04:30:12;;;;;;;;;;;-0.30;99.90;;;;;;5086052;28;19921;-68
2023/01/26 04:32:39;;;;;;;;;;;-0.30;99.90;;;;;;5086078;28;19951;-69
2023/01/26 04:35:08;;;;;;;;;;;-0.30;99.90;;;;;;5085672;28;19983;-68
2023/01/26 04:37:35;;;;;;;;;;;-0.30;99.90;;;;;;5085713;28;19920;-68
2023/01/26 04:40:03;;;;;;;;;;;-0.30;99.90;;;;;;5085797;28;19921;-68
2023/01/26 04:42:29;;;;;;;;;;;-0.30;99.90;;;;;;5085613;28;20007;-68
2023/01/26 04:44:56;;;;;;;;;;;-0.40;99.90;;;;;;5074068;28;19980;-68
2023/01/26 04:47:22;;;;;;;;;;;-0.30;99.90;;;;;;5065112;28;19988;-69
2023/01/26 04:49:49;;;;;;;;;;;-0.30;99.90;;;;;;5065602;28;19953;-68
2023/01/26 04:52:17;;;;;;;;;;;-0.30;99.90;;;;;;5065636;28;19992;-68
2023/01/26 04:54:44;;;;;;;;;;;-0.30;99.90;;;;;;5065618;28;19924;-68
2023/01/26 04:57:10;;;;;;;;;;;-0.30;99.90;;;;;;5064987;28;19928;-68
2023/01/26 04:59:37;;;;;;;;;;;-0.30;99.90;;;;;;5065519;28;19988;-68
2023/01/26 05:02:04;;;;;;;;;;;-0.20;99.90;;;;;;5065013;28;19984;-68
2023/01/26 05:04:30;;;;;;;;;;;-0.30;99.90;;;;;;5065172;28;19996;-68
2023/01/26 05:06:57;;;;;;;;;;;-0.30;99.90;;;;;;5064757;28;20307;-68
2023/01/26 05:09:25;;;;;;;;;;;-0.30;99.90;;;;;;5064898;28;19947;-68
2023/01/26 05:11:52;;;;;;;;;;;-0.30;99.90;;;;;;5064818;28;20165;-68
2023/01/26 05:14:18;;;;;;;;;;;-0.30;99.90;;;;;;5065092;28;19952;-68
2023/01/26 05:16:45;;;;;;;;;;;-0.30;99.90;;;;;;5064831;28;19987;-68
2023/01/26 05:19:11;;;;;;;;;;;-0.30;99.90;;;;;;5064685;28;20235;-68
2023/01/26 05:21:38;;;;;;;;;;;-0.30;99.90;;;;;;5064934;28;19983;-68
2023/01/26 05:24:05;;;;;;;;;;;-0.30;99.90;;;;;;5064145;28;19992;-68
2023/01/26 05:26:33;;;;;;;;;;;-0.30;99.90;;;;;;5064732;28;19962;-67
2023/01/26 05:29:00;;;;;;;;;;;-0.30;99.90;;;;;;5064608;28;19921;-69
2023/01/26 05:31:26;;;;;;;;;;;-0.30;99.90;;;;;;5064504;28;19995;-68
2023/01/26 05:33:53;;;;;;;;;;;-0.30;99.90;;;;;;5064595;28;19988;-68
2023/01/26 05:36:19;;;;;;;;;;;-0.30;99.90;;;;;;5064633;28;20129;-69
2023/01/26 05:38:47;;;;;;;;;;;-0.30;99.90;;;;;;5064426;28;19984;-68
2023/01/26 05:41:13;;;;;;;;;;;-0.30;99.90;;;;;;5064410;28;19921;-67
2023/01/26 05:43:41;;;;;;;;;;;-0.30;99.90;;;;;;5064424;28;20190;-68
2023/01/26 05:46:08;;;;;;;;;;;-0.30;99.90;;;;;;5064028;28;19921;-67
2023/01/26 05:48:34;;;;;;;;;;;-0.30;99.90;;;;;;5064493;28;19952;-67
2023/01/26 05:51:01;;;;;;;;;;;-0.30;99.90;;;;;;5064431;28;19987;-68
2023/01/26 05:53:28;;;;;;;;;;;-0.30;99.90;;;;;;5064558;28;19971;-67
2023/01/26 05:55:54;;;;;;;;;;;-0.30;99.90;;;;;;5064050;28;20235;-66
2023/01/26 05:58:21;;;;;;;;;;;-0.20;99.90;;;;;;5064341;28;19955;-67
2023/01/26 06:00:49;;;;;;;;;;;-0.20;99.90;;;;;;5064982;28;19920;-67
2023/01/26 06:03:15;;;;;;;;;;;-0.30;99.90;;;;;;5065155;28;20000;-67
2023/01/26 06:05:42;;;;;;;;;;;-0.30;99.90;;;;;;5064437;28;19928;-67
2023/01/26 06:08:09;;;;;;;;;;;-0.30;99.90;;;;;;5063943;28;19952;-67
2023/01/26 06:10:35;;;;;;;;;;;-0.30;99.90;;;;;;5064051;28;19956;-67
2023/01/26 06:13:02;;;;;;;;;;;-0.30;99.90;;;;;;5064116;28;19980;-67
2023/01/26 06:15:28;;;;;;;;;;;-0.30;99.90;;;;;;5064024;28;19987;-67
2023/01/26 06:17:56;;;;;;;;;;;-0.30;99.90;;;;;;5063919;28;19987;-71
2023/01/26 06:20:23;;;;;;;;;;;-0.30;99.90;;;;;;5064179;28;19921;-67
2023/01/26 06:22:50;;;;;;;;;;;-0.30;99.90;;;;;;5063434;28;20222;-68
2023/01/26 06:25:16;;;;;;;;;;;-0.30;99.90;;;;;;5062942;28;19928;-69
2023/01/26 06:27:43;;;;;;;;;;;-0.30;99.90;;;;;;5063783;28;19987;-67
2023/01/26 06:30:10;;;;;;;;;;;-0.30;99.90;;;;;;5063752;28;20148;-66
2023/01/26 06:32:37;;;;;;;;;;;-0.20;99.90;;;;;;5063704;28;19921;-67
2023/01/26 06:35:07;;;;;;;;;;;-0.30;99.90;;;;;;5063363;28;19925;-66
2023/01/26 06:37:34;;;;;;;;;;;-0.20;99.90;;;;;;5063491;28;19920;-67
2023/01/26 06:40:00;;;;;;;;;;;-0.20;99.90;;;;;;5063558;28;19952;-70
2023/01/26 06:42:27;;;;;;;;;;;-0.20;99.90;;;;;;5063347;28;20263;-67
2023/01/26 06:44:53;;;;;;;;;;;-0.20;99.90;;;;;;5063540;28;19992;-67
2023/01/26 06:47:20;;;;;;;;;;;-0.20;99.90;;;;;;5063335;28;19949;-67
2023/01/26 06:49:47;;;;;;;;;;;-0.20;99.90;;;;;;5063145;28;20303;-67
2023/01/26 06:52:26;;;;;;;;;;;-0.10;99.90;;;;;;5063409;28;19991;-70
2023/01/26 06:54:53;;;;;;;;;;;-0.10;99.90;;;;;;5063479;28;19920;-67
2023/01/26 06:57:19;;;;;;;;;;;-0.10;99.90;;;;;;5063351;28;19995;-67
2023/01/26 06:59:46;;;;;;;;;;;-0.20;99.90;;;;;;5063137;28;20228;-67
2023/01/26 07:02:16;;;;;;;;;;;-0.20;99.90;;;;;;5063391;28;19959;-66
2023/01/26 07:04:42;;;;;;;;;;;-0.20;99.90;;;;;;5063044;28;19920;-66
2023/01/26 07:07:09;;;;;;;;;;;-0.30;99.90;;;;;;5063281;28;19988;-66
2023/01/26 07:09:37;;;;;;;;;;;-0.20;99.90;;;;;;5063022;28;20116;-67
2023/01/26 07:12:04;;;;;;;;;;;-0.20;99.90;;;;;;5063043;28;19921;-66
2023/01/26 07:14:31;;;;;;;;;;;-0.20;99.90;;;;;;5063095;28;19966;-67
2023/01/26 07:16:57;;;;;;;;;;;-0.30;99.90;;;;;;5063274;28;19984;-67
2023/01/26 07:19:24;;;;;;;;;;;-0.30;99.90;;;;;;5063263;28;19951;-67
2023/01/26 07:21:51;;;;;;;;;;;-0.30;99.90;;;;;;5062997;28;19956;-67
2023/01/26 07:24:20;;;;;;;;;;;-0.20;99.90;;;;;;5062520;28;19975;-67
2023/01/26 07:26:48;;;;;;;;;;;-0.30;99.90;;;;;;5063065;28;19927;-67
2023/01/26 07:29:15;;;;;;;;;;;-0.20;99.90;;;;;;5063246;28;19921;-66
2023/01/26 07:31:43;;;;;;;;;;;-0.20;99.90;;;;;;5063091;28;19920;-67
2023/01/26 07:34:09;;;;;;;;;;;-0.20;99.90;;;;;;5062856;28;19988;-66
2023/01/26 07:36:36;;;;;;;;;;;-0.20;99.90;;;;;;5066191;28;19921;-67
2023/01/26 07:39:03;;;;;;;;;;;-0.20;99.90;;;;;;5066934;28;19963;-67
2023/01/26 07:41:29;;;;;;;;;;;-0.10;99.90;;;;;;5066557;28;19927;-67
2023/01/26 07:43:57;;;;;;;;;;;-0.20;99.90;;;;;;5066811;28;20130;-67
2023/01/26 07:46:24;;;;;;;;;;;-0.20;99.90;;;;;;5066594;28;19927;-67
2023/01/26 07:48:51;;;;;;;;;;;-0.20;99.90;;;;;;5066734;28;19921;-67
2023/01/26 07:51:17;;;;;;;;;;;-0.20;99.90;;;;;;5066614;28;19952;-66
2023/01/26 07:53:48;;;;;;;;;;;-0.20;99.90;;;;;;5066634;28;19920;-67
2023/01/26 07:56:15;;;;;;;;;;;-0.20;99.90;;;;;;5066383;28;19921;-66
2023/01/26 07:58:42;;;;;;;;;;;-0.20;99.90;;;;;;5066188;28;19920;-67
2023/01/26 08:01:11;;;;;;;;;;;-0.20;99.90;;;;;;5066489;28;19987;-68
2023/01/26 08:03:38;;;;;;;;;;;-0.20;99.90;;;;;;5066062;28;19921;-67
2023/01/26 08:06:06;;;;;;;;;;;-0.20;99.90;;;;;;5066265;28;19987;-67
2023/01/26 08:08:32;;;;;;;;;;;-0.20;99.90;;;;;;5066145;28;19995;-67
2023/01/26 08:11:00;;;;;;;;;;;-0.20;99.90;;;;;;5066217;28;19920;-67
2023/01/26 08:13:27;;;;;;;;;;;-0.20;99.90;;;;;;5066288;28;19925;-67
2023/01/26 08:15:54;;;;;;;;;;;-0.20;99.90;;;;;;5065818;28;19920;-67
2023/01/26 08:18:21;;;;;;;;;;;-0.20;99.90;;;;;;5066187;28;19927;-67
2023/01/26 08:20:51;;;;;;;;;;;-0.20;99.90;;;;;;5066217;28;19920;-67
2023/01/26 08:23:18;;;;;;;;;;;-0.20;99.90;;;;;;5066044;28;20148;-66
2023/01/26 08:25:45;;;;;;;;;;;-0.30;99.90;;;;;;5065420;28;20200;-67
2023/01/26 08:28:12;;;;;;;;;;;-0.30;99.90;;;;;;5066040;28;19988;-66
2023/01/26 08:30:38;;;;;;;;;;;-0.30;99.90;;;;;;5066084;28;20131;-67
2023/01/26 08:33:05;;;;;;;;;;;-0.30;99.90;;;;;;5065762;28;19988;-66
2023/01/26 08:35:33;;;;;;;;;;;-0.30;99.90;;;;;;5065825;28;19948;-67
2023/01/26 08:38:00;;;;;;;;;;;-0.30;99.90;;;;;;5065349;28;19920;-67
2023/01/26 08:40:27;;;;;;;;;;;-0.30;99.90;;;;;;5065729;28;19927;-67
2023/01/26 08:42:54;;;;;;;;;;;-0.30;99.90;;;;;;5065770;28;19920;-67
2023/01/26 08:45:20;;;;;;;;;;;-0.30;99.90;;;;;;5065573;28;19920;-67
2023/01/26 08:47:48;;;;;;;;;;;-0.40;99.90;;;;;;5064716;28;20263;-67
2023/01/26 08:50:15;;;;;;;;;;;-0.40;99.90;;;;;;5065533;28;19992;-67
2023/01/26 08:52:43;;;;;;;;;;;-0.40;99.90;;;;;;5065267;28;19920;-67
2023/01/26 08:55:10;;;;;;;;;;;-0.40;99.90;;;;;;5065496;28;19927;-66
2023/01/26 08:57:37;;;;;;;;;;;0.40;99.90;;;;;;5065383;28;19920;-66
2023/01/26 09:00:04;;;;;;;;;;;-0.40;99.90;;;;;;5065471;28;19963;-67
2023/01/26 09:02:30;;;;;;;;;;;-0.40;99.90;;;;;;5064980;28;19921;-67
2023/01/26 09:04:57;;;;;;;;;;;-0.40;99.90;;;;;;5065211;28;19960;-68
2023/01/26 09:07:23;;;;;;;;;;;-0.40;99.90;;;;;;5064811;28;19989;-66
2023/01/26 09:09:51;;;;;;;;;;;-0.40;99.90;;;;;;5065159;28;19956;-67
2023/01/26 09:12:18;;;;;;;;;;;-0.40;99.90;;;;;;5065084;28;19979;-66
2023/01/26 09:14:45;;;;;;;;;;;-0.40;99.90;;;;;;5065167;28;19921;-67
2023/01/26 09:17:11;;;;;;;;;;;-0.40;99.90;;;;;;5064976;28;20156;-67
2023/01/26 09:19:38;;;;;;;;;;;-0.40;99.90;;;;;;5064875;28;19988;-68
2023/01/26 09:22:04;;;;;;;;;;;-0.40;99.90;;;;;;5065660;28;19954;-67
2023/01/26 09:24:31;;;;;;;;;;;-0.40;99.90;;;;;;5067878;28;19927;-67
2023/01/26 09:26:59;;;;;;;;;;;-0.40;99.90;;;;;;5068888;28;19988;-67
2023/01/26 09:29:26;;;;;;;;;;;-0.40;99.90;;;;;;5065186;28;19963;-67
2023/01/26 09:31:52;;;;;;;;;;;-0.30;99.90;;;;;;5064850;28;19995;-67
2023/01/26 09:34:19;;;;;;;;;;;-0.30;99.90;;;;;;5064482;28;20148;-67
2023/01/26 09:36:45;;;;;;;;;;;-0.40;99.90;;;;;;5064621;28;19988;-67
2023/01/26 09:39:12;;;;;;;;;;;-0.40;99.90;;;;;;5064670;28;19955;-67
2023/01/26 09:41:46;;;;;;;;;;;-0.20;99.90;;;;;;5064283;28;19995;-66
2023/01/26 09:44:16;;;;;;;;;;;-0.30;99.90;;;;;;5064221;28;20119;-67
2023/01/26 09:46:49;;;;;;;;;;;-0.40;99.90;;;;;;5064331;28;19921;-68
2023/01/26 09:49:19;;;;;;;;;;;-0.40;99.90;;;;;;5064529;28;19927;-68
2023/01/26 09:51:47;;;;;;;;;;;-0.30;99.90;;;;;;5064311;28;19991;-67
2023/01/26 09:54:20;;;;;;;;;;;-0.30;99.90;;;;;;5064123;28;19963;-67
2023/01/26 09:56:46;;;;;;;;;;;-0.40;99.90;;;;;;5063922;28;20321;-67
2023/01/26 09:59:19;;;;;;;;;;;-0.30;99.90;;;;;;5064275;28;19984;-67
2023/01/26 10:01:51;;;;;;;;;;;-0.30;99.90;;;;;;5064012;28;20353;-67
2023/01/26 10:04:21;;;;;;;;;;;-0.30;99.90;;;;;;5063929;28;20316;-67
2023/01/26 10:06:48;;;;;;;;;;;-0.30;99.90;;;;;;5063679;28;19984;-67
2023/01/26 10:09:16;;;;;;;;;;;-0.30;99.90;;;;;;5064280;28;19952;-67
2023/01/26 10:11:45;;;;;;;;;;;-0.30;99.90;;;;;;5064013;28;19920;-67
2023/01/26 10:14:14;;;;;;;;;;;-0.30;99.90;;;;;;5064014;28;19980;-67
2023/01/26 10:16:43;;;;;;;;;;;-0.30;99.90;;;;;;5063707;28;19921;-67
2023/01/26 10:19:12;;;;;;;;;;;-0.30;99.90;;;;;;5063591;28;19921;-67
2023/01/26 10:21:42;;;;;;;;;;;-0.30;99.90;;;;;;5063685;28;19921;-66
2023/01/26 10:24:10;;;;;;;;;;;-0.30;99.90;;;;;;5063211;28;19920;-67
2023/01/26 10:26:37;;;;;;;;;;;-0.30;99.90;;;;;;5063674;28;19984;-66
2023/01/26 10:29:06;;;;;;;;;;;-0.30;99.90;;;;;;5063088;28;20123;-67
2023/01/26 10:31:33;;;;;;;;;;;-0.30;99.90;;;;;;5078892;28;19987;-67
2023/01/26 10:34:08;;;;;;;;;;;-0.30;99.90;;;;;;5070556;28;19983;-67
2023/01/26 10:36:35;;;;;;;;;;;-0.30;99.90;;;;;;5063424;28;19921;-67
2023/01/26 10:39:06;;;;;;;;;;;-0.30;99.90;;;;;;5071543;28;19921;-67
2023/01/26 10:41:33;;;;;;;;;;;-0.30;99.90;;;;;;5083376;28;19920;-67
2023/01/26 10:44:01;;;;;;;;;;;-0.40;99.90;;;;;;5083761;28;19920;-67
2023/01/26 10:46:32;;;;;;;;;;;-0.30;99.90;;;;;;5083524;28;19927;-67
2023/01/26 10:48:59;;;;;;;;;;;-0.30;99.90;;;;;;5083374;28;19974;-67
2023/01/26 10:51:29;;;;;;;;;;;-0.30;99.90;;;;;;5083584;28;19920;-66
2023/01/26 10:54:14;;;;;;;;;;;-0.30;99.90;;;;;;5083309;28;19920;-67
2023/01/26 10:56:44;;;;;;;;;;;-0.30;99.90;;;;;;5083358;28;19920;-66
2023/01/26 10:59:13;;;;;;;;;;;-0.30;99.90;;;;;;5083581;28;19958;-67
2023/01/26 11:01:51;;;;;;;;;;;-0.30;99.90;;;;;;5083412;28;20115;-67
2023/01/26 11:04:18;;;;;;;;;;;-0.40;99.90;;;;;;5083323;28;19921;-67
2023/01/26 11:06:46;;;;;;;;;;;-0.40;99.90;;;;;;5083343;28;19962;-68
2023/01/26 11:09:18;;;;;;;;;;;-0.40;99.90;;;;;;5083446;28;19921;-67
2023/01/26 11:11:54;;;;;;;;;;;-0.40;99.90;;;;;;5087451;28;20146;-67
2023/01/26 11:14:21;;;;;;;;;;;-0.30;99.90;;;;;;5087188;28;19920;-67
2023/01/26 11:16:50;;;;;;;;;;;-0.40;99.90;;;;;;5087365;28;19991;-66
2023/01/26 11:19:24;;;;;;;;;;;-0.40;99.90;;;;;;5087105;28;19927;-67
2023/01/26 11:21:55;;;;;;;;;;;-0.40;99.90;;;;;;5087423;28;19927;-67
2023/01/26 11:24:24;;;;;;;;;;;-0.50;99.90;;;;;;5086598;28;19979;-67
2023/01/26 11:26:58;;;;;;;;;;;-0.50;99.90;;;;;;5087237;28;19987;-69
2023/01/26 11:29:31;;;;;;;;;;;-0.50;99.90;;;;;;5086849;28;19983;-67
2023/01/26 11:32:02;;;;;;;;;;;-0.50;99.90;;;;;;5087175;28;19996;-67
2023/01/26 11:34:34;;;;;;;;;;;-0.60;99.90;;;;;;5086789;28;19927;-67
2023/01/26 11:37:08;;;;;;;;;;;-0.60;99.90;;;;;;5086614;28;19920;-66
2023/01/26 11:39:39;;;;;;;;;;;-0.60;99.90;;;;;;5085996;28;19921;-67
2023/01/26 11:42:13;;;;;;;;;;;-0.60;99.90;;;;;;5086912;28;19927;-67
2023/01/26 11:44:50;;;;;;;;;;;-0.60;99.90;;;;;;5086807;28;19927;-67
2023/01/26 11:47:25;;;;;;;;;;;-0.60;99.90;;;;;;5086768;28;19983;-67
2023/01/26 11:50:00;;;;;;;;;;;-0.60;99.90;;;;;;5086719;28;19928;-67
2023/01/26 11:52:32;;;;;;;;;;;-0.50;99.90;;;;;;5086566;28;19920;-67
2023/01/26 11:55:10;;;;;;;;;;;-0.60;99.90;;;;;;5086477;28;19920;-67
2023/01/26 11:57:41;;;;;;;;;;;-0.50;99.90;;;;;;5086681;28;19983;-67
2023/01/26 12:00:14;;;;;;;;;;;-0.50;99.90;;;;;;5086269;28;19930;-67
2023/01/26 12:02:42;;;;;;;;;;;-0.50;99.90;;;;;;5086651;28;19978;-67
2023/01/26 12:05:13;;;;;;;;;;;-0.50;99.90;;;;;;5086487;28;19927;-67
2023/01/26 12:07:53;;;;;;;;;;;-0.50;99.90;;;;;;5086495;28;19927;-66
2023/01/26 12:10:22;;;;;;;;;;;-0.50;99.90;;;;;;5086490;28;20111;-67
2023/01/26 12:12:52;;;;;;;;;;;-0.60;99.90;;;;;;5086249;28;20123;-66
2023/01/26 12:15:21;;;;;;;;;;;-0.70;99.90;;;;;;5086241;28;20204;-67
2023/01/26 12:17:51;;;;;;;;;;;-0.70;99.90;;;;;;5086405;28;19952;-67
2023/01/26 12:20:26;;;;;;;;;;;-0.70;99.90;;;;;;5086201;28;19983;-67
2023/01/26 12:22:58;;;;;;;;;;;-0.70;99.90;;;;;;5084995;28;19987;-67
2023/01/26 12:25:28;;;;;;;;;;;-0.60;99.90;;;;;;5085464;28;19921;-67
2023/01/26 12:27:56;;;;;;;;;;;-0.60;99.90;;;;;;5085871;28;19983;-67
2023/01/26 12:30:26;;;;;;;;;;;-0.60;99.90;;;;;;5086225;28;19956;-67
2023/01/26 12:32:53;;;;;;;;;;;-0.60;99.90;;;;;;5086137;28;19962;-67
2023/01/26 12:35:27;;;;;;;;;;;-0.60;99.90;;;;;;5085894;28;19927;-67
2023/01/26 12:37:58;;;;;;;;;;;-0.60;99.90;;;;;;5086079;28;20181;-67
2023/01/26 12:40:30;;;;;;;;;;;-0.60;99.90;;;;;;5085964;28;19983;-67
2023/01/26 12:43:01;;;;;;;;;;;-0.60;99.90;;;;;;5086000;28;19970;-68
2023/01/26 12:45:30;;;;;;;;;;;-0.60;99.90;;;;;;5085537;28;20271;-67
2023/01/26 12:48:01;;;;;;;;;;;-0.60;99.90;;;;;;5085940;28;19927;-67
2023/01/26 12:50:30;;;;;;;;;;;-0.60;99.90;;;;;;5085775;28;19927;-67
2023/01/26 12:53:01;;;;;;;;;;;-0.60;99.90;;;;;;5085708;28;19920;-68
2023/01/26 12:55:29;;;;;;;;;;;-0.60;99.90;;;;;;5085802;28;19987;-67
2023/01/26 12:57:58;;;;;;;;;;;-0.50;99.90;;;;;;5085506;28;19920;-67
2023/01/26 13:00:26;;;;;;;;;;;-0.50;99.90;;;;;;5085374;28;19966;-67
2023/01/26 13:02:55;;;;;;;;;;;-0.50;99.90;;;;;;5085602;28;19988;-67
2023/01/26 13:05:26;;;;;;;;;;;-0.50;99.90;;;;;;5085075;28;19959;-67
2023/01/26 13:07:53;;;;;;;;;;;-0.50;99.90;;;;;;5085367;28;19987;-67
2023/01/26 13:10:23;;;;;;;;;;;-0.50;99.90;;;;;;5085418;28;19983;-67
2023/01/26 13:12:51;;;;;;;;;;;-0.40;99.90;;;;;;5085658;28;20196;-67
2023/01/26 13:15:18;;;;;;;;;;;-0.40;99.90;;;;;;5085199;28;19920;-67
2023/01/26 13:17:49;;;;;;;;;;;-0.40;99.90;;;;;;5084899;28;19952;-67
2023/01/26 13:20:23;;;;;;;;;;;-0.40;99.90;;;;;;5084799;28;19920;-66
2023/01/26 13:22:49;;;;;;;;;;;-0.50;99.90;;;;;;5085225;28;19927;-67
2023/01/26 13:25:18;;;;;;;;;;;-0.40;99.90;;;;;;5084217;28;19942;-66
2023/01/26 13:27:54;;;;;;;;;;;-0.50;99.90;;;;;;5084631;28;19984;-67
2023/01/26 13:30:28;;;;;;;;;;;-0.50;99.90;;;;;;5085025;28;19920;-67
2023/01/26 13:33:02;;;;;;;;;;;-0.50;99.90;;;;;;5084630;28;19927;-68
2023/01/26 13:35:29;;;;;;;;;;;-0.50;99.90;;;;;;5084844;28;19920;-67
2023/01/26 13:37:58;;;;;;;;;;;-0.50;99.90;;;;;;5084701;28;19942;-66
2023/01/26 13:40:28;;;;;;;;;;;-0.50;99.90;;;;;;5084658;28;19920;-67
2023/01/26 13:42:58;;;;;;;;;;;-0.50;99.90;;;;;;5084281;28;19920;-67
2023/01/26 13:45:29;;;;;;;;;;;-0.50;99.90;;;;;;5084168;28;19926;-67
2023/01/26 13:47:56;;;;;;;;;;;-0.40;99.90;;;;;;5084441;28;19927;-67
2023/01/26 13:50:23;;;;;;;;;;;-0.50;99.90;;;;;;5084454;28;20140;-67
2023/01/26 13:52:50;;;;;;;;;;;-0.30;99.90;;;;;;5084238;28;19927;-67
2023/01/26 13:55:21;;;;;;;;;;;-0.40;99.90;;;;;;5084403;28;19963;-67
2023/01/26 13:57:48;;;;;;;;;;;-0.40;99.90;;;;;;5084188;28;19983;-67
2023/01/26 14:00:17;;;;;;;;;;;-0.40;99.90;;;;;;5084151;28;19962;-67
2023/01/26 14:02:48;;;;;;;;;;;-0.50;99.90;;;;;;5084020;28;19920;-67
2023/01/26 14:05:21;;;;;;;;;;;-0.50;99.90;;;;;;5084163;28;20138;-67
2023/01/26 14:07:47;;;;;;;;;;;-0.50;99.90;;;;;;5084040;28;19999;-67
2023/01/26 14:10:15;;;;;;;;;;;-0.50;99.90;;;;;;5084116;28;19927;-66
2023/01/26 14:12:42;;;;;;;;;;;-0.50;99.90;;;;;;5084080;28;19920;-67
2023/01/26 14:15:21;;;;;;;;;;;-0.50;99.90;;;;;;5083975;28;19983;-67
2023/01/26 14:17:50;;;;;;;;;;;-0.40;99.90;;;;;;5083871;28;20131;-67
2023/01/26 14:20:19;;;;;;;;;;;-0.50;99.90;;;;;;5083589;28;19954;-66
2023/01/26 14:22:47;;;;;;;;;;;-0.40;99.90;;;;;;5082488;28;19920;-67
2023/01/26 14:25:19;;;;;;;;;;;-0.50;99.90;;;;;;5081828;28;20142;-67
2023/01/26 14:27:46;;;;;;;;;;;-0.50;99.90;;;;;;5081447;28;19926;-67
2023/01/26 14:30:21;;;;;;;;;;;-0.50;99.90;;;;;;5082844;28;19926;-67
2023/01/26 14:32:54;;;;;;;;;;;-0.40;99.90;;;;;;5082519;28;20043;-66
2023/01/26 14:35:22;;;;;;;;;;;-0.40;99.90;;;;;;5083292;28;19955;-68
2023/01/26 14:37:49;;;;;;;;;;;-0.50;99.90;;;;;;5082673;28;19920;-67
2023/01/26 14:40:20;;;;;;;;;;;-0.50;99.90;;;;;;5083033;28;19927;-67
2023/01/26 14:42:47;;;;;;;;;;;-0.50;99.90;;;;;;5083601;28;19920;-67
2023/01/26 14:45:14;;;;;;;;;;;-0.40;99.90;;;;;;5082813;28;19920;-67
2023/01/26 14:47:41;;;;;;;;;;;-0.40;99.90;;;;;;5082979;28;19920;-67
2023/01/26 14:50:13;;;;;;;;;;;-0.50;99.90;;;;;;5082552;28;19966;-69
2023/01/26 14:52:43;;;;;;;;;;;-0.40;99.90;;;;;;5083372;28;19926;-67
2023/01/26 14:55:13;;;;;;;;;;;-0.40;99.90;;;;;;5082427;28;19934;-68
2023/01/26 14:57:40;;;;;;;;;;;-0.40;99.90;;;;;;5082089;28;19983;-67
2023/01/26 15:00:08;;;;;;;;;;;-0.40;99.90;;;;;;5081743;28;20373;-66
2023/01/26 15:02:36;;;;;;;;;;;-0.40;99.90;;;;;;5081843;28;20168;-67
2023/01/26 15:05:09;;;;;;;;;;;-0.40;99.90;;;;;;5081511;28;19935;-67
2023/01/26 15:07:38;;;;;;;;;;;-0.40;99.90;;;;;;5081795;28;19988;-67
2023/01/26 15:10:25;;;;;;;;;;;-0.50;99.90;;;;;;5081463;28;20168;-68
2023/01/26 15:12:56;;;;;;;;;;;-0.50;99.90;;;;;;5077422;28;19924;-68
2023/01/26 15:15:22;;;;;;;;;;;-0.40;99.90;;;;;;5063134;28;19921;-68
2023/01/26 15:17:59;;;;;;;;;;;-0.50;99.90;;;;;;5062795;28;19921;-68
2023/01/26 15:20:37;;;;;;;;;;;-0.50;99.90;;;;;;5063031;28;19920;-68
2023/01/26 15:23:19;;;;;;;;;;;-0.50;99.90;;;;;;5062590;28;19921;-67